• Join FlightAware (Why Join?)
  • Login
  • US Flag 
12:45PM EST


 

Airport Tracker/Info


-or-


 

Live Flight TrackerFlight Track Log ✈ QLK108D ✈ 16-May-2014 ✈ YSSY / SYD - YCFS

Flight Track Log - Related Links

Times and Time Zones

All times are in EDT time to prevent confusion due to time zone crossing. See the QLK108D flight status page for this flight to view local times or setup timezone preferences in your user account.

Time Position Orientation Groundspeed Altitude Reporting Facility
EDT Latitude Longitude Course Direction KTS MPH feet Rate Location/Type
09:31PM -33.8942 151.1916 14° North 194 223 2,400  Level Aus ATC (RADAR)
09:33PM -33.7759 151.2273 14° North 241 277 5,000 1,500 Climbing Aus ATC (RADAR)
09:35PM -33.6610 151.3092 31° Northeast 238 274 8,300 1,860 Climbing Aus ATC (RADAR)
09:37PM -33.5437 151.3961 32° Northeast 253 291 12,500 1,860 Climbing Aus ATC (RADAR)
09:39PM -33.4109 151.4808 28° Northeast 265 305 15,900 1,620 Climbing Aus ATC (RADAR)
09:41PM -33.2683 151.5632 26° Northeast 261 300 19,600 1,320 Climbing Aus ATC (RADAR)
09:43PM -33.1397 151.6372 26° Northeast 281 323 21,400 420 Climbing Aus ATC (RADAR)
09:45PM -32.9766 151.7297 25° Northeast 343 395 21,400  Level Aus ATC (RADAR)
09:47PM -32.7947 151.8322 25° Northeast 359 413 21,400  Level Aus ATC (RADAR)
09:49PM -32.5967 151.8764 11° North 359 413 21,400  Level Aus ATC (RADAR)
09:51PM -32.4076 151.9220 12° North 359 413 21,400  Level Aus ATC (RADAR)
09:53PM -32.1868 151.9732 11° North 359 413 21,400  Level Aus ATC (RADAR)
09:55PM -31.9989 152.0437 18° North 360 414 21,400  Level Aus ATC (RADAR)
09:57PM -31.8288 152.1829 35° Northeast 360 414 21,400  Level Aus ATC (RADAR)
09:59PM -31.6634 152.3134 34° Northeast 362 417 21,400  Level Aus ATC (RADAR)
10:01PM -31.4990 152.4447 34° Northeast 357 411 21,400 -180 Level Aus ATC (RADAR)
10:03PM -31.3340 152.5757 34° Northeast 361 415 20,800 -1,140 Descending Aus ATC (RADAR)
10:06PM -31.1460 152.7207 33° Northeast 333 383 16,600 -1,560 Descending Aus ATC (RADAR)
10:08PM -30.9908 152.8193 29° Northeast 321 369 14,400 -1,020 Descending Aus ATC (RADAR)
10:10PM -30.8278 152.8978 22° Northeast 315 362 12,700 -1,500 Descending Aus ATC (RADAR)
10:12PM -30.6408 152.9785 20° North 261 300 7,600 -1,920 Descending Aus ATC (RADAR)
10:14PM -30.5079 153.0439 23° Northeast 247 284 3,800 -1,740 Descending Aus ATC (RADAR)
10:16PM -30.4284 153.0876 25° Northeast 238 274 1,800 -1,560 Descending Aus ATC (RADAR)
10:18PM -30.3206 153.1164 21° North  Level Estimated
10:25PM -30.3206 153.1164 North  Level Estimated
10:26PM -30.3206 153.1164 21° North  Level Estimated
10:27PM -30.3206 153.1164 North  Level Estimated